createdAt,value
2022-11-05T00:00:41.519Z,30.25
2022-11-05T00:06:04.449Z,27.30
2022-11-05T00:11:09.760Z,28.02
2022-11-05T00:16:33.421Z,32.13
2022-11-05T00:21:55.913Z,21.17
2022-11-05T00:26:58.959Z,19.67
2022-11-05T00:32:03.823Z,15.80
2022-11-05T00:37:06.813Z,16.43
2022-11-05T00:42:28.175Z,19.90
2022-11-05T00:47:52.784Z,22.52
2022-11-05T00:52:57.038Z,21.80
2022-11-05T00:58:00.555Z,14.93
2022-11-05T01:03:05.125Z,19.27
2022-11-05T01:08:10.289Z,17.02
2022-11-05T01:13:14.388Z,17.30
2022-11-05T01:18:18.012Z,16.80
2022-11-05T01:23:21.551Z,17.10
2022-11-05T01:28:24.624Z,17.45
2022-11-05T01:33:27.496Z,19.45
2022-11-05T01:38:33.223Z,23.23
2022-11-05T01:43:54.631Z,17.83
2022-11-05T01:49:03.326Z,22.92
2022-11-05T01:54:11.191Z,22.80
2022-11-05T01:59:20.361Z,20.35
2022-11-05T02:04:35.608Z,18.13
2022-11-05T02:09:57.292Z,24.42
2022-11-05T02:15:01.078Z,24.17
2022-11-05T02:20:23.556Z,28.50
2022-11-05T02:25:47.759Z,23.77
2022-11-05T02:30:59.406Z,29.15
2022-11-05T02:36:11.759Z,16.25
2022-11-05T02:41:15.067Z,14.98
2022-11-05T02:46:17.870Z,15.88
2022-11-05T02:51:25.395Z,15.45
2022-11-05T02:56:31.873Z,19.42
2022-11-05T03:01:39.655Z,15.65
2022-11-05T03:07:02.236Z,16.88
2022-11-05T03:12:11.432Z,17.08
2022-11-05T03:17:33.415Z,18.48
2022-11-05T03:22:42.716Z,17.00
2022-11-05T03:27:56.121Z,18.38
2022-11-05T03:33:01.767Z,25.27
2022-11-05T03:38:11.087Z,17.55
2022-11-05T03:43:16.064Z,14.30
2022-11-05T03:48:20.425Z,16.90
2022-11-05T03:53:26.835Z,12.40
2022-11-05T03:58:30.308Z,12.80
2022-11-05T04:03:39.113Z,15.13
2022-11-05T04:09:00.446Z,15.60
2022-11-05T04:14:03.364Z,14.65
2022-11-05T04:19:06.237Z,16.67
2022-11-05T04:24:09.389Z,14.45
2022-11-05T04:29:31.338Z,15.38
2022-11-05T04:34:34.201Z,13.20
2022-11-05T04:39:45.266Z,13.32
2022-11-05T04:44:48.297Z,21.33
2022-11-05T04:49:51.200Z,13.57
2022-11-05T04:54:53.976Z,21.48
2022-11-05T04:59:58.377Z,11.25
2022-11-05T05:05:02.083Z,11.75
2022-11-05T05:10:24.090Z,16.58
2022-11-05T05:15:26.930Z,12.95
2022-11-05T05:20:48.361Z,21.45
2022-11-05T05:25:51.500Z,11.40
2022-11-05T05:30:58.626Z,13.77
2022-11-05T05:36:05.848Z,12.15
2022-11-05T05:41:12.872Z,16.48
2022-11-05T05:46:16.673Z,13.55
2022-11-05T05:51:21.073Z,13.30
2022-11-05T05:56:23.892Z,19.73
2022-11-05T06:01:27.433Z,13.10
2022-11-05T06:06:30.659Z,23.05
2022-11-05T06:11:33.527Z,30.52
2022-11-05T06:16:36.583Z,14.80
2022-11-05T06:21:39.933Z,19.50
2022-11-05T06:26:43.455Z,18.08
2022-11-05T06:31:46.563Z,12.82
2022-11-05T06:36:49.401Z,20.67
2022-11-05T06:47:16.118Z,22.80
2022-11-05T06:52:19.266Z,21.08
2022-11-05T06:57:22.518Z,29.30
2022-11-05T07:02:25.467Z,25.17
2022-11-05T07:07:28.469Z,14.95
2022-11-05T07:12:32.867Z,17.95
2022-11-05T07:17:35.888Z,18.42
2022-11-05T07:22:40.834Z,20.52
2022-11-05T07:32:48.027Z,34.47
2022-11-05T07:37:51.950Z,57.88
2022-11-05T07:42:56.753Z,70.88
2022-11-05T07:48:04.075Z,86.50
2022-11-05T07:53:17.031Z,100.03
2022-11-05T07:58:22.343Z,119.30
2022-11-05T08:03:25.273Z,127.35
2022-11-05T08:08:29.207Z,146.35
2022-11-05T08:13:35.344Z,163.02
2022-11-05T08:18:38.240Z,168.10
2022-11-05T08:23:42.693Z,203.07
2022-11-05T08:28:46.180Z,209.88
2022-11-05T08:33:50.005Z,234.43
2022-11-05T08:38:52.905Z,224.57
2022-11-05T08:43:56.816Z,218.07
2022-11-05T08:48:59.683Z,219.27
2022-11-05T08:54:02.541Z,223.18
2022-11-05T08:59:11.885Z,212.38
2022-11-05T09:04:14.860Z,227.38
2022-11-05T09:09:17.672Z,205.38
2022-11-05T09:14:21.010Z,221.55
2022-11-05T09:19:24.066Z,222.95
2022-11-05T09:24:26.995Z,222.65
2022-11-05T09:29:29.875Z,230.40
2022-11-05T09:34:33.593Z,145.13
2022-11-05T09:39:36.409Z,194.50
2022-11-05T09:45:05.775Z,215.63
2022-11-05T09:50:09.995Z,182.20
2022-11-05T09:55:35.954Z,194.38
2022-11-05T10:00:40.235Z,207.38
2022-11-05T10:05:43.644Z,181.63
2022-11-05T10:10:55.958Z,164.73
2022-11-05T10:16:01.849Z,184.40
2022-11-05T10:21:05.274Z,162.75
2022-11-05T10:26:12.575Z,165.60
2022-11-05T10:31:23.075Z,116.30
2022-11-05T10:36:32.238Z,143.40
2022-11-05T10:41:47.114Z,91.90
2022-11-05T10:47:08.752Z,108.32
2022-11-05T10:52:30.502Z,96.80
2022-11-05T10:57:37.935Z,75.90
2022-11-05T11:03:00.732Z,97.32
2022-11-05T11:08:06.447Z,81.10
2022-11-05T11:13:20.324Z,65.10
2022-11-05T11:18:29.572Z,68.07
2022-11-05T11:23:37.433Z,83.68
2022-11-05T11:28:48.947Z,90.80
2022-11-05T11:33:56.475Z,73.53
2022-11-05T11:39:01.834Z,45.10
2022-11-05T11:44:08.433Z,38.20
2022-11-05T11:49:31.099Z,41.33
2022-11-05T11:54:37.512Z,43.05
2022-11-05T12:00:07.370Z,34.72
2022-11-05T12:05:09.665Z,34.47
2022-11-05T12:10:22.715Z,35.50
2022-11-05T12:15:34.825Z,32.17
2022-11-05T12:20:37.586Z,40.92
2022-11-05T12:25:40.419Z,31.88
2022-11-05T12:30:49.620Z,28.08
2022-11-05T12:36:00.322Z,22.10
2022-11-05T12:41:23.349Z,27.15
2022-11-05T12:46:42.719Z,31.70
2022-11-05T12:52:22.561Z,23.02
2022-11-05T12:57:26.186Z,28.08
2022-11-05T13:02:34.150Z,19.80
2022-11-05T13:07:41.977Z,26.88
2022-11-05T13:12:45.476Z,34.60
2022-11-05T13:17:52.906Z,23.15
2022-11-05T13:23:07.204Z,20.95
2022-11-05T13:28:29.457Z,19.20
2022-11-05T13:33:40.097Z,16.33
2022-11-05T13:39:00.689Z,20.08
2022-11-05T13:44:33.146Z,16.48
2022-11-05T13:49:55.794Z,17.17
2022-11-05T13:55:16.283Z,12.93
2022-11-05T14:00:22.381Z,19.90
2022-11-05T14:05:27.880Z,16.83
2022-11-05T14:10:33.275Z,17.77
2022-11-05T14:15:36.762Z,15.40
2022-11-05T14:20:45.200Z,17.48
2022-11-05T14:25:53.783Z,17.77
2022-11-05T14:30:56.715Z,19.52
2022-11-05T14:36:18.325Z,15.60
2022-11-05T14:41:23.904Z,21.65
2022-11-05T14:46:40.358Z,26.98
2022-11-05T14:51:48.773Z,17.30
2022-11-05T14:56:58.825Z,19.52
2022-11-05T15:02:04.773Z,30.55
2022-11-05T15:07:08.423Z,24.35
2022-11-05T15:12:11.832Z,17.92
2022-11-05T15:17:32.157Z,21.13
2022-11-05T15:22:43.558Z,22.52
2022-11-05T15:27:46.773Z,21.83
2022-11-05T15:32:51.694Z,27.88
2022-11-05T15:38:01.779Z,25.30
2022-11-05T15:43:10.112Z,25.13
2022-11-05T15:48:14.328Z,25.40
2022-11-05T15:53:44.057Z,25.45
2022-11-05T15:58:47.066Z,22.17
2022-11-05T16:03:51.694Z,30.27
2022-11-05T16:08:55.246Z,23.00
2022-11-05T16:14:19.120Z,28.52
2022-11-05T16:19:42.662Z,30.38
2022-11-05T16:25:21.294Z,24.73
2022-11-05T16:30:24.482Z,25.30
2022-11-05T16:35:29.988Z,21.70
2022-11-05T16:40:51.340Z,28.35
2022-11-05T16:45:57.325Z,19.17
2022-11-05T16:51:01.343Z,24.77
2022-11-05T16:56:04.987Z,16.70
2022-11-05T17:01:12.714Z,21.55
2022-11-05T17:06:16.824Z,18.90
2022-11-05T17:11:21.964Z,22.02
2022-11-05T17:16:26.338Z,25.85
2022-11-05T17:21:29.272Z,22.05
2022-11-05T17:26:32.291Z,25.92
2022-11-05T17:31:35.131Z,14.90
2022-11-05T17:36:37.954Z,20.23
2022-11-05T17:41:40.859Z,23.33
2022-11-05T17:46:44.607Z,21.27
2022-11-05T17:51:47.527Z,26.17
2022-11-05T17:56:52.457Z,23.52
2022-11-05T18:01:55.361Z,21.33
2022-11-05T18:06:58.302Z,23.52
2022-11-05T18:12:01.383Z,8.95
2022-11-05T18:17:04.679Z,19.55
2022-11-05T18:22:07.559Z,19.63
2022-11-05T18:27:11.331Z,20.40
2022-11-05T18:32:14.313Z,21.63
2022-11-05T18:37:17.113Z,27.33
2022-11-05T18:42:23.591Z,19.08
2022-11-05T18:47:45.046Z,23.90
2022-11-05T18:52:48.126Z,18.58
2022-11-05T18:57:51.217Z,21.52
2022-11-05T19:02:56.010Z,22.25
2022-11-05T19:07:59.180Z,24.67
2022-11-05T19:13:02.237Z,19.27
2022-11-05T19:18:08.100Z,22.13
2022-11-05T19:23:11.148Z,16.70
2022-11-05T19:28:16.032Z,26.17
2022-11-05T19:33:18.937Z,18.02
2022-11-05T19:38:21.861Z,20.15
2022-11-05T19:43:24.784Z,15.93
2022-11-05T19:48:27.746Z,21.95
2022-11-05T19:53:30.787Z,17.98
2022-11-05T19:58:34.301Z,21.13
2022-11-05T20:03:37.869Z,22.40
2022-11-05T20:08:59.830Z,22.17
2022-11-05T20:14:07.922Z,15.55
2022-11-05T20:19:12.200Z,16.33
2022-11-05T20:24:22.372Z,24.98
2022-11-05T20:29:33.867Z,7.18
2022-11-05T20:34:38.342Z,25.48
2022-11-05T20:39:41.204Z,26.13
2022-11-05T20:44:44.060Z,19.23
2022-11-05T20:49:46.901Z,20.08
2022-11-05T20:54:50.124Z,20.00
2022-11-05T20:59:55.610Z,13.97
2022-11-05T21:04:59.657Z,14.32
2022-11-05T21:10:03.982Z,24.85
2022-11-05T21:15:07.272Z,29.13
2022-11-05T21:20:10.407Z,23.98
2022-11-05T21:25:14.328Z,22.63
2022-11-05T21:30:17.130Z,21.57
2022-11-05T21:35:20.755Z,21.58
2022-11-05T21:40:23.668Z,21.58
2022-11-05T21:45:26.728Z,17.15
2022-11-05T21:50:50.130Z,25.15
2022-11-05T21:56:11.591Z,30.17
2022-11-05T22:01:14.697Z,40.30
2022-11-05T22:06:17.680Z,23.10
2022-11-05T22:11:20.470Z,14.18
2022-11-05T22:16:23.344Z,24.90
2022-11-05T22:21:26.201Z,24.15
2022-11-05T22:26:29.059Z,20.30
2022-11-05T22:31:36.239Z,26.60
2022-11-05T22:36:41.862Z,26.35
2022-11-05T22:41:44.888Z,19.67
2022-11-05T22:46:47.760Z,16.88
2022-11-05T22:51:51.629Z,18.83
2022-11-05T22:57:13.157Z,17.40
2022-11-05T23:02:16.104Z,28.70
2022-11-05T23:07:37.643Z,23.05
2022-11-05T23:12:42.724Z,19.92
2022-11-05T23:18:04.095Z,23.83
2022-11-05T23:23:29.341Z,15.55
2022-11-05T23:28:32.100Z,20.70
2022-11-05T23:33:35.575Z,35.88
2022-11-05T23:38:38.465Z,22.45
2022-11-05T23:44:00.176Z,21.65
2022-11-05T23:49:03.057Z,21.02
2022-11-05T23:54:06.942Z,22.63
2022-11-05T23:59:12.650Z,20.92
